Arley, AL

2:13 AM CDT on October 01, 2014 (GMT -0500)
Cullman | Change Station
CLOSE
Current Station
Airport
Location: Cullman,
Elevation: 961 ft
Nearby Weather Stations

Elev 961 ft 34.27 °N, 86.86 °W | Updated 456 days ago

Clear
Clear
63 °F
Feels Like 63 °F
N
0
Wind Variable Wind from West
Gusts mph

Today
High -- | Low -- °F
--% Chance of Precip.
Yesterday
High -- | Low -- °F
Precip. -- in
6:43 AM 6:33 PM
Waxing Crescent, 44% visible
Pressure 29.87 in
Visibility 10.0 miles
Clouds Scattered Clouds 4600 ft
Scattered Clouds 6000 ft
Scattered Clouds 7000 ft
Dew Point 60 °F
Humidity 90%
Rainfall 0.00 in
Snow Depth Not available.
UV 4 out of 12
Pollen 5.80 out of 12
Ozone Good
PM2.5 Moderate
Flu Activity Not available.
METAR K3A1 012135Z AUTO 30006KT 10SM SCT046 SCT060 SCT070 28/17 A2987 RMK AO2 T02780172

More Conditions Fewer Conditions

Pressure 29.87 in
Visibility 10.0 miles
Clouds Scattered Clouds 4600 ft
Scattered Clouds 6000 ft
Scattered Clouds 7000 ft
Dew Point 60 °F
Humidity 90%
Rainfall 0.00 in
Snow Depth Not available.
UV 4 out of 12
Pollen 5.80 out of 12
Ozone Good
PM2.5 Moderate
Flu Activity Not available.
METAR K3A1 012135Z AUTO 30006KT 10SM SCT046 SCT060 SCT070 28/17 A2987 RMK AO2 T02780172

More Conditions Fewer Conditions

10-Day Weather Forecast

Almanac

Astronomy

Oct. 01, 2014 Rise Set
Actual Time 6:43 AM CDT 6:33 PM CDT
Civil Twilight 6:18 AM CDT 6:58 PM CDT
Nautical Twilight 5:49 AM CDT 7:27 PM CDT
Astronomical Twilight 5:20 AM CDT 7:56 PM CDT
Moon 1:33 PM CDT No Moon Set
Length of Visible Light 12h 39m
Length of Day
11h 49m
Tomorrow will be 2m 6s shorter.
Waxing Crescent, 44% of the Moon is Illuminated
Today
Waxing Crescent
Oct 1
First Quarter
Oct 8
Full
Oct 15
Last Quarter
Oct 23
New

Today's Extremes

State Highs State Lows

Community

WunderPhotos

Upload Photos

1,757,898 photos uploaded!

Nearby

Air Quality

  Air Quality AQ Index Pollutant
Yesterday Good
PM10
Yesterday Good
OZONE
Current Moderate
PM2.5
Current Good
OZONE
Wednesday Moderate
PM2.5
Wednesday Good
OZONE

Snow Depth

Station Depth Elevation
No new snow has been reported.

Earthquake Activity

City Distance Mag. Time & Date
No recent earthquake activity has been reported nearby.
Minimum magnitude displayed is 2.5.

Coastal Water Temperatures

Place Temperature
No Stations Reporting

Nearby Weather Stations